Frost, Texas
Current Conditions -  °F | °C
As of 2:15 PM on Wednesday 28 Jan 2015 (Local Time) from KINJ Reporting Station
Clear Clear  
Wind Chill: 79°   Ceiling: Unl
Heat Index: 79°   Visibility: 10mi
Dew Point: 44°   Wind: 18mph
Humidity: 29%   Direction: 170°S
Pressure: 30.03"   Gusts: NA
Location:  32.08°N, 96.81°W
Report Text: KINJ 282015Z AUTO 17016KT 10SM CLR 26/07 A3003 RMK AO2 T02600067
Loading
Personal Weather Stations






























Interactive Weather Map New forecast layout! Learn more

10-Day Weather Forecast

Advertisements
Track Severe Weather on mobile